Time;durP1;ratioP1;P1;durP2;ratioP2;P2;SDS_P1;SDS_P2;PMS_P1;PMS_P2;Temp;Humidity;BMP_temperature;BMP_pressure;BME280_temperature;BME280_humidity;BME280_pressure;Samples;Min_cycle;Max_cycle;Signal;HPM_P1;HPM_P2
2022/06/15 00:00:57;;;;;;;9.65;6.13;;;11.40;98.40;;;;;;5122354;27;20062;-61
2022/06/15 00:03:25;;;;;;;9.95;5.85;;;11.40;98.90;;;;;;5099366;27;20035;-63
2022/06/15 00:05:51;;;;;;;9.38;6.05;;;11.40;98.70;;;;;;5127316;27;20050;-63
2022/06/15 00:08:17;;;;;;;9.32;5.68;;;11.30;98.50;;;;;;5123228;27;20079;-61
2022/06/15 00:10:42;;;;;;;12.90;6.72;;;11.30;98.50;;;;;;5123302;27;20035;-62
2022/06/15 00:13:09;;;;;;;9.40;5.93;;;11.20;98.60;;;;;;5119501;27;20050;-63
2022/06/15 00:15:35;;;;;;;8.55;5.60;;;11.20;98.80;;;;;;5122022;27;20125;-63
2022/06/15 00:18:00;;;;;;;10.38;6.25;;;11.20;98.90;;;;;;5121292;27;20034;-63
2022/06/15 00:20:26;;;;;;;9.68;5.95;;;11.20;99.30;;;;;;5122798;27;20584;-63
2022/06/15 00:22:52;;;;;;;9.20;5.93;;;11.20;99.00;;;;;;5122539;27;20458;-61
2022/06/15 00:25:17;;;;;;;8.82;5.40;;;11.20;99.70;;;;;;5123806;27;20403;-61
2022/06/15 00:27:43;;;;;;;9.45;6.15;;;11.10;99.10;;;;;;5124162;27;20043;-61
2022/06/15 00:30:10;;;;;;;11.63;6.22;;;11.10;99.10;;;;;;5119851;27;20050;-63
2022/06/15 00:32:35;;;;;;;8.55;5.80;;;11.00;99.20;;;;;;5126051;27;20035;-61
2022/06/15 00:35:01;;;;;;;11.98;5.45;;;11.00;99.10;;;;;;5133415;27;20033;-62
2022/06/15 00:37:26;;;;;;;9.93;5.75;;;11.00;99.20;;;;;;5123057;27;20133;-62
2022/06/15 00:39:52;;;;;;;9.93;6.28;;;11.00;99.20;;;;;;5118365;27;20482;-62
2022/06/15 00:42:19;;;;;;;8.60;5.60;;;11.00;99.20;;;;;;5120390;27;20043;-63
2022/06/15 00:44:45;;;;;;;8.73;5.15;;;11.00;99.40;;;;;;5123514;27;20065;-62
2022/06/15 00:47:28;;;;;;;8.65;5.95;;;11.00;99.30;;;;;;5108361;27;20070;-62
2022/06/15 00:50:06;;;;;;;8.15;6.22;;;11.00;99.40;;;;;;5097231;27;20043;-62
2022/06/15 00:52:43;;;;;;;12.02;5.80;;;10.90;99.90;;;;;;5122776;27;20031;-62
2022/06/15 00:55:30;;;;;;;8.63;5.32;;;10.80;99.90;;;;;;5122027;27;20162;-62
2022/06/15 00:57:57;;;;;;;9.80;5.20;;;10.70;99.90;;;;;;5129423;27;20440;-62
2022/06/15 01:00:26;;;;;;;8.32;5.28;;;10.70;99.50;;;;;;5118840;27;20047;-63
2022/06/15 01:02:51;;;;;;;10.77;5.38;;;10.70;99.80;;;;;;5124278;27;20086;-62
2022/06/15 01:05:22;;;;;;;7.43;5.25;;;10.70;99.80;;;;;;5121132;27;20181;-62
2022/06/15 01:08:08;;;;;;;6.75;5.07;;;10.70;99.90;;;;;;5124468;27;20058;-61
2022/06/15 01:10:40;;;;;;;10.10;5.95;;;10.60;99.90;;;;;;5119748;27;20177;-60
2022/06/15 01:13:20;;;;;;;11.75;5.82;;;10.60;99.90;;;;;;5123651;27;20043;-60
2022/06/15 01:16:13;;;;;;;9.38;5.72;;;10.50;99.90;;;;;;5119044;27;20035;-61
2022/06/15 01:19:04;;;;;;;8.13;5.43;;;10.50;99.90;;;;;;5130461;27;20534;-62
2022/06/15 01:21:33;;;;;;;7.55;5.53;;;10.50;99.90;;;;;;5122761;27;20043;-61
2022/06/15 01:24:10;;;;;;;8.73;6.05;;;10.40;99.90;;;;;;5102339;27;20424;-62
2022/06/15 01:27:02;;;;;;;11.52;5.80;;;10.40;99.90;;;;;;5118186;27;20039;-62
2022/06/15 01:29:37;;;;;;;9.15;5.78;;;10.40;99.90;;;;;;5121915;27;20046;-62
2022/06/15 01:32:20;;;;;;;7.13;5.25;;;10.40;99.90;;;;;;5109824;27;20131;-62
2022/06/15 01:35:19;;;;;;;9.63;5.00;;;10.40;99.90;;;;;;5126422;27;20042;-63
2022/06/15 01:37:57;;;;;;;11.13;5.72;;;10.50;99.90;;;;;;5120808;27;20057;-62
2022/06/15 01:40:41;;;;;;;10.38;6.15;;;10.40;99.90;;;;;;5122550;27;20039;-60
2022/06/15 01:43:12;;;;;;;10.00;5.55;;;10.30;99.90;;;;;;5125377;27;20045;-61
2022/06/15 01:45:39;;;;;;;10.35;5.93;;;10.30;99.90;;;;;;5120580;27;20317;-62
2022/06/15 01:48:08;;;;;;;10.57;5.80;;;10.30;99.90;;;;;;5129885;27;20073;-61
2022/06/15 01:50:56;;;;;;;10.13;5.78;;;10.30;99.90;;;;;;5125501;27;20516;-62
2022/06/15 01:53:41;;;;;;;10.77;6.43;;;10.30;99.90;;;;;;5123651;27;20058;-61
2022/06/15 01:56:16;;;;;;;9.43;6.10;;;10.20;99.90;;;;;;5129154;27;20069;-62
2022/06/15 01:58:45;;;;;;;13.27;5.93;;;10.20;99.90;;;;;;5122449;27;20061;-62
2022/06/15 02:01:24;;;;;;;12.00;5.93;;;10.20;99.90;;;;;;5120413;27;20043;-62
2022/06/15 02:04:00;;;;;;;7.50;5.78;;;10.20;99.90;;;;;;5123449;27;20886;-61
2022/06/15 02:07:07;;;;;;;9.40;5.68;;;10.10;99.90;;;;;;5128223;27;20054;-60
2022/06/15 02:09:49;;;;;;;9.60;6.03;;;10.00;99.90;;;;;;5126438;27;20160;-63
2022/06/15 02:12:21;;;;;;;9.85;6.28;;;10.00;99.90;;;;;;5125587;27;20039;-62
2022/06/15 02:14:58;;;;;;;8.77;6.07;;;9.90;99.90;;;;;;5127253;27;21799;-62
2022/06/15 02:17:32;;;;;;;7.00;5.32;;;10.00;99.90;;;;;;5123284;27;20123;-60
2022/06/15 02:20:04;;;;;;;8.95;5.55;;;9.90;99.90;;;;;;5130767;27;20034;-63
2022/06/15 02:22:34;;;;;;;8.65;5.72;;;9.90;99.90;;;;;;5122945;27;20049;-62
2022/06/15 02:25:03;;;;;;;9.32;5.78;;;10.00;99.90;;;;;;5128228;27;20046;-62
2022/06/15 02:27:32;;;;;;;7.75;5.28;;;9.90;99.90;;;;;;5133058;27;21900;-62
2022/06/15 02:30:09;;;;;;;9.02;5.25;;;9.90;99.90;;;;;;5121561;27;20050;-61
2022/06/15 02:32:37;;;;;;;9.82;6.00;;;9.90;99.90;;;;;;5122215;27;21098;-62
2022/06/15 02:35:04;;;;;;;11.18;5.40;;;9.80;99.90;;;;;;5131841;27;20516;-62
2022/06/15 02:37:29;;;;;;;8.68;5.43;;;9.80;99.90;;;;;;5123913;27;20940;-62
2022/06/15 02:39:55;;;;;;;8.25;5.43;;;9.80;99.90;;;;;;5127461;27;20098;-62
2022/06/15 02:42:28;;;;;;;8.55;5.25;;;9.70;99.90;;;;;;5130317;27;20043;-61
2022/06/15 02:44:58;;;;;;;7.55;5.40;;;9.70;99.90;;;;;;5123656;27;20509;-62
2022/06/15 02:47:26;;;;;;;9.90;5.35;;;9.70;99.90;;;;;;5119847;27;20043;-62
2022/06/15 02:49:51;;;;;;;10.88;5.70;;;9.70;99.90;;;;;;5121462;27;20126;-61
2022/06/15 02:52:22;;;;;;;8.98;5.57;;;9.70;99.90;;;;;;5125742;27;20091;-62
2022/06/15 02:54:51;;;;;;;7.95;5.03;;;9.60;99.90;;;;;;5124350;27;20061;-61
2022/06/15 02:57:18;;;;;;;9.75;5.40;;;9.70;99.90;;;;;;5122276;27;20378;-63
2022/06/15 02:59:45;;;;;;;9.05;5.32;;;9.70;99.90;;;;;;5118405;27;20038;-61
2022/06/15 03:02:14;;;;;;;7.00;4.45;;;9.70;99.90;;;;;;5125678;27;20074;-61
2022/06/15 03:04:41;;;;;;;8.00;4.75;;;9.70;99.90;;;;;;5125259;27;20402;-63
2022/06/15 03:07:07;;;;;;;8.52;5.07;;;9.70;99.90;;;;;;5123871;27;20534;-61
2022/06/15 03:09:33;;;;;;;8.43;5.38;;;9.60;99.90;;;;;;5106266;27;20049;-63
2022/06/15 03:11:58;;;;;;;8.50;5.63;;;9.60;99.90;;;;;;5125479;27;20031;-63
2022/06/15 03:14:24;;;;;;;8.95;5.50;;;9.60;99.90;;;;;;5121400;27;20038;-61
2022/06/15 03:16:49;;;;;;;10.13;6.00;;;9.60;99.90;;;;;;5120186;27;20394;-62
2022/06/15 03:19:15;;;;;;;7.53;5.22;;;9.50;99.90;;;;;;5119329;27;20154;-63
2022/06/15 03:21:41;;;;;;;7.82;5.38;;;9.50;99.90;;;;;;5126914;27;20476;-61
2022/06/15 03:24:07;;;;;;;11.38;6.10;;;9.50;99.90;;;;;;5121261;27;20039;-61
2022/06/15 03:26:33;;;;;;;8.90;5.78;;;9.50;99.90;;;;;;5123717;27;20043;-62
2022/06/15 03:28:59;;;;;;;7.22;4.30;;;9.50;99.90;;;;;;5120201;27;20081;-62
2022/06/15 03:31:27;;;;;;;6.38;5.00;;;9.50;99.90;;;;;;5122435;27;20031;-63
2022/06/15 03:33:53;;;;;;;10.68;6.00;;;9.50;99.90;;;;;;5101998;27;20095;-63
2022/06/15 03:36:19;;;;;;;11.15;5.72;;;9.50;99.90;;;;;;5119053;27;20482;-62
2022/06/15 03:38:44;;;;;;;8.98;5.93;;;9.60;99.90;;;;;;5121781;27;20069;-62
2022/06/15 03:41:10;;;;;;;11.60;5.85;;;9.60;99.90;;;;;;5128642;27;22546;-62
2022/06/15 03:43:55;;;;;;;9.80;6.35;;;9.50;99.90;;;;;;5121160;27;20063;-62
2022/06/15 03:46:23;;;;;;;9.75;5.95;;;9.60;99.90;;;;;;5122642;27;20047;-62
2022/06/15 03:48:48;;;;;;;8.25;5.70;;;9.50;99.90;;;;;;5121627;27;20039;-62
2022/06/15 03:51:14;;;;;;;8.02;5.43;;;9.60;99.90;;;;;;5121241;27;20504;-63
2022/06/15 03:53:40;;;;;;;8.50;5.68;;;9.60;99.90;;;;;;5125067;27;20050;-62
2022/06/15 03:56:06;;;;;;;8.32;5.55;;;9.60;99.90;;;;;;5121933;27;20078;-62
2022/06/15 03:58:31;;;;;;;9.90;6.22;;;9.70;99.90;;;;;;5119110;27;20458;-63
2022/06/15 04:00:57;;;;;;;11.65;6.15;;;9.70;99.90;;;;;;5123180;27;20039;-63
2022/06/15 04:03:23;;;;;;;9.35;6.22;;;9.70;99.90;;;;;;5122211;27;20039;-62
2022/06/15 04:05:53;;;;;;;10.80;6.35;;;9.70;99.90;;;;;;5121056;27;20042;-62
2022/06/15 04:08:35;;;;;;;10.50;5.95;;;9.80;99.90;;;;;;5116424;27;20050;-63
2022/06/15 04:11:03;;;;;;;7.38;5.53;;;9.80;99.90;;;;;;5125283;27;20594;-61
2022/06/15 04:13:29;;;;;;;9.98;6.00;;;9.90;99.90;;;;;;5121124;27;20074;-61
2022/06/15 04:15:54;;;;;;;8.95;5.72;;;9.90;99.90;;;;;;5117658;27;20656;-62
2022/06/15 04:18:21;;;;;;;9.23;5.95;;;10.00;99.90;;;;;;5108373;27;20046;-62
2022/06/15 04:20:47;;;;;;;10.18;6.18;;;10.00;99.90;;;;;;5123469;27;20034;-62
2022/06/15 04:23:14;;;;;;;9.57;6.00;;;10.10;99.90;;;;;;5120246;27;20031;-63
2022/06/15 04:25:43;;;;;;;10.52;5.97;;;10.20;99.90;;;;;;5122578;27;20491;-63
2022/06/15 04:28:12;;;;;;;9.57;6.35;;;10.20;99.90;;;;;;5123660;27;20042;-61
2022/06/15 04:30:38;;;;;;;13.35;7.25;;;10.30;99.90;;;;;;5126997;27;20738;-61
2022/06/15 04:33:04;;;;;;;10.68;6.15;;;10.30;99.90;;;;;;5123840;27;20038;-62
2022/06/15 04:35:30;;;;;;;12.10;6.70;;;10.40;99.90;;;;;;5120784;27;20031;-62
2022/06/15 04:37:56;;;;;;;13.55;7.00;;;10.50;99.90;;;;;;5126148;27;20154;-63
2022/06/15 04:40:22;;;;;;;13.25;6.88;;;10.60;99.90;;;;;;5123832;27;20089;-63
2022/06/15 04:42:48;;;;;;;9.32;6.38;;;10.70;99.90;;;;;;5120799;27;20067;-62
2022/06/15 04:45:14;;;;;;;10.35;7.00;;;10.80;99.90;;;;;;5102955;27;20106;-62
2022/06/15 04:47:40;;;;;;;13.02;7.03;;;10.90;99.90;;;;;;5123784;27;20046;-62
2022/06/15 04:50:07;;;;;;;11.50;6.93;;;11.10;99.90;;;;;;5122653;27;20070;-62
2022/06/15 04:52:33;;;;;;;11.68;6.53;;;11.20;99.90;;;;;;5124236;27;20046;-62
2022/06/15 04:54:59;;;;;;;10.30;6.32;;;11.20;99.90;;;;;;5123955;27;20039;-62
2022/06/15 04:57:24;;;;;;;10.23;6.70;;;11.20;99.90;;;;;;5126619;27;20382;-62
2022/06/15 04:59:50;;;;;;;10.30;6.38;;;11.20;99.90;;;;;;5126766;27;20084;-61
2022/06/15 05:02:16;;;;;;;9.70;6.70;;;11.30;99.90;;;;;;5104355;27;20078;-61
2022/06/15 05:04:42;;;;;;;11.75;7.68;;;11.30;99.90;;;;;;5129613;27;20043;-62
2022/06/15 05:07:08;;;;;;;11.07;6.70;;;11.30;99.90;;;;;;5125666;27;20381;-62
2022/06/15 05:09:34;;;;;;;11.55;6.68;;;11.40;99.90;;;;;;5128550;27;20043;-62
2022/06/15 05:11:59;;;;;;;12.48;7.43;;;11.60;99.90;;;;;;5121809;27;20035;-63
2022/06/15 05:14:25;;;;;;;11.43;6.95;;;11.70;99.90;;;;;;5121265;27;20117;-63
2022/06/15 05:16:50;;;;;;;11.80;6.75;;;11.90;99.90;;;;;;5123103;27;20095;-61
2022/06/15 05:19:16;;;;;;;12.23;7.32;;;12.00;99.90;;;;;;5129330;27;20126;-62
2022/06/15 05:21:43;;;;;;;11.70;7.13;;;12.20;99.90;;;;;;5125388;27;20047;-62
2022/06/15 05:24:10;;;;;;;13.07;7.10;;;12.40;99.90;;;;;;5125362;27;20167;-63
2022/06/15 05:26:35;;;;;;;9.95;6.38;;;12.50;99.90;;;;;;5126693;27;20049;-63
2022/06/15 05:29:02;;;;;;;11.52;7.30;;;12.60;99.90;;;;;;5128373;27;22069;-61
2022/06/15 05:31:28;;;;;;;12.32;6.88;;;12.80;99.90;;;;;;5132644;27;20312;-63
2022/06/15 05:33:55;;;;;;;13.63;6.70;;;12.90;99.90;;;;;;5134536;27;20033;-62
2022/06/15 05:36:27;;;;;;;9.38;6.50;;;13.00;99.90;;;;;;5135483;27;20438;-63
2022/06/15 05:38:53;;;;;;;10.30;5.93;;;13.10;99.90;;;;;;5137668;27;20035;-62
2022/06/15 05:41:18;;;;;;;12.15;7.40;;;13.20;99.90;;;;;;5130755;27;20042;-62
2022/06/15 05:43:46;;;;;;;10.98;6.28;;;13.30;99.90;;;;;;5131544;27;20039;-63
2022/06/15 05:46:24;;;;;;;12.18;6.97;;;13.40;99.90;;;;;;5123747;27;20031;-62
2022/06/15 05:48:50;;;;;;;10.90;6.38;;;13.60;99.90;;;;;;5133697;27;20051;-62
2022/06/15 05:51:16;;;;;;;9.63;5.68;;;13.70;99.90;;;;;;5132524;27;20447;-62
2022/06/15 05:53:41;;;;;;;7.72;5.47;;;13.90;99.90;;;;;;5135409;27;20141;-63
2022/06/15 05:56:07;;;;;;;12.32;5.97;;;14.40;99.90;;;;;;5133162;27;20054;-62
2022/06/15 05:58:32;;;;;;;12.45;5.75;;;14.60;99.90;;;;;;5112737;27;20053;-61
2022/06/15 06:01:26;;;;;;;7.45;5.57;;;14.90;99.30;;;;;;5114254;27;20039;-62
2022/06/15 06:03:52;;;;;;;9.10;5.43;;;15.00;98.60;;;;;;5133614;27;20133;-62
2022/06/15 06:06:18;;;;;;;10.23;5.80;;;15.40;99.00;;;;;;5135550;27;20073;-62
2022/06/15 06:08:44;;;;;;;9.75;4.90;;;15.80;99.10;;;;;;5130218;27;20121;-63
2022/06/15 06:11:09;;;;;;;6.45;4.30;;;16.10;98.20;;;;;;5131281;27;20095;-63
2022/06/15 06:13:35;;;;;;;5.80;3.75;;;16.50;97.00;;;;;;5135900;27;20474;-62
2022/06/15 06:16:00;;;;;;;6.72;3.92;;;16.70;95.30;;;;;;5129767;27;20050;-63
2022/06/15 06:18:26;;;;;;;7.93;3.78;;;16.90;94.50;;;;;;5136606;27;20037;-62
2022/06/15 06:20:52;;;;;;;5.68;3.80;;;17.30;93.60;;;;;;5165149;27;20394;-62
2022/06/15 06:23:19;;;;;;;6.53;3.78;;;17.50;92.90;;;;;;5144305;27;20039;-63
2022/06/15 06:25:47;;;;;;;6.60;3.72;;;17.50;92.10;;;;;;5146324;27;20098;-63
2022/06/15 06:28:31;;;;;;;4.45;3.20;;;17.40;91.60;;;;;;5131787;27;20467;-63
2022/06/15 06:31:00;;;;;;;8.10;3.80;;;17.30;89.90;;;;;;5130182;27;20062;-63
2022/06/15 06:33:27;;;;;;;6.70;3.25;;;17.60;90.80;;;;;;5146143;27;20031;-63
2022/06/15 06:35:54;;;;;;;6.72;3.40;;;17.70;90.10;;;;;;5152912;27;20466;-62
2022/06/15 06:38:21;;;;;;;7.72;3.17;;;18.00;90.00;;;;;;5147818;27;20046;-63
2022/06/15 06:40:48;;;;;;;6.32;2.80;;;18.30;90.00;;;;;;5147512;27;20064;-63
2022/06/15 06:43:14;;;;;;;4.25;2.80;;;18.50;87.30;;;;;;5143783;27;20039;-63
2022/06/15 06:45:39;;;;;;;5.40;2.70;;;18.70;85.20;;;;;;5147925;27;20504;-63
2022/06/15 06:48:05;;;;;;;5.50;2.75;;;18.80;82.80;;;;;;5151711;27;20039;-63
2022/06/15 06:50:31;;;;;;;6.05;2.35;;;18.80;81.10;;;;;;5154970;27;20041;-63
2022/06/15 06:52:56;;;;;;;5.43;2.50;;;18.80;81.00;;;;;;5152340;27;20050;-63
2022/06/15 06:55:26;;;;;;;4.72;2.58;;;18.90;80.30;;;;;;5153157;27;20047;-63
2022/06/15 06:57:56;;;;;;;5.57;2.67;;;19.10;79.80;;;;;;5118405;27;20074;-63
2022/06/15 07:00:22;;;;;;;3.30;1.88;;;19.40;77.10;;;;;;5148781;27;20058;-64
2022/06/15 07:02:48;;;;;;;3.83;2.20;;;19.60;77.90;;;;;;5151294;27;20090;-64
2022/06/15 07:05:14;;;;;;;6.05;2.97;;;19.80;77.30;;;;;;5146909;27;20042;-64
2022/06/15 07:07:40;;;;;;;4.47;2.72;;;19.90;77.50;;;;;;5128904;27;20031;-63
2022/06/15 07:10:06;;;;;;;6.43;2.85;;;20.00;77.30;;;;;;5140481;27;20114;-64
2022/06/15 07:12:33;;;;;;;7.45;3.35;;;20.20;77.60;;;;;;5148322;27;20045;-63
2022/06/15 07:14:58;;;;;;;7.50;3.63;;;20.40;76.90;;;;;;5144360;27;20039;-63
2022/06/15 07:17:24;;;;;;;4.28;2.80;;;20.50;77.10;;;;;;5148462;27;20038;-64
2022/06/15 07:19:50;;;;;;;4.57;2.72;;;20.60;76.90;;;;;;5154478;27;20045;-64
2022/06/15 07:22:15;;;;;;;4.72;3.25;;;20.90;76.10;;;;;;5155171;27;20034;-63
2022/06/15 07:24:41;;;;;;;5.55;2.90;;;21.20;74.60;;;;;;5148883;27;20098;-64
2022/06/15 07:27:07;;;;;;;6.18;3.10;;;21.30;73.00;;;;;;5146463;27;20065;-63
2022/06/15 07:29:33;;;;;;;6.28;2.25;;;21.40;71.10;;;;;;5141307;27;20042;-61
2022/06/15 07:31:59;;;;;;;3.92;2.30;;;21.50;68.90;;;;;;5139963;27;20045;-63
2022/06/15 07:34:25;;;;;;;3.67;2.03;;;21.70;67.40;;;;;;5150835;27;20091;-62
2022/06/15 07:36:51;;;;;;;4.85;2.70;;;21.80;66.00;;;;;;5154105;27;20405;-62
2022/06/15 07:39:22;;;;;;;6.53;2.60;;;21.90;66.10;;;;;;5154468;27;20039;-61
2022/06/15 07:41:49;;;;;;;6.30;3.00;;;22.10;64.40;;;;;;5154412;27;20413;-61
2022/06/15 07:44:16;;;;;;;8.18;3.35;;;22.10;64.10;;;;;;5150751;27;20039;-62
2022/06/15 07:46:42;;;;;;;5.60;3.03;;;22.40;63.20;;;;;;5152968;27;20077;-62
2022/06/15 07:52:00;;;;;;;7.93;3.30;;;22.50;63.10;;;;;;5133875;27;20050;-62
2022/06/15 07:54:27;;;;;;;4.15;2.50;;;22.70;62.50;;;;;;5115060;27;20055;-63
2022/06/15 07:56:55;;;;;;;5.32;2.92;;;22.80;63.00;;;;;;5133391;27;20035;-62
2022/06/15 07:59:22;;;;;;;5.90;3.03;;;23.10;61.60;;;;;;5150880;27;20093;-63
2022/06/15 08:01:48;;;;;;;6.05;3.03;;;23.20;61.70;;;;;;5152828;27;20045;-62
2022/06/15 08:04:15;;;;;;;5.38;2.55;;;23.40;61.50;;;;;;5154259;27;20027;-63
2022/06/15 08:06:43;;;;;;;5.28;2.08;;;23.50;60.70;;;;;;5153974;27;20091;-62
2022/06/15 08:09:10;;;;;;;6.90;2.85;;;23.80;60.00;;;;;;5150696;27;20138;-63
2022/06/15 08:12:11;;;;;;;6.68;2.80;;;24.00;59.50;;;;;;5152850;27;20042;-63
2022/06/15 08:14:27;;;;;;;4.32;2.40;;;24.10;57.00;;;;;;5152007;27;20430;-63
2022/06/15 08:16:53;;;;;;;6.80;2.45;;;24.30;55.60;;;;;;5152518;27;20391;-63
2022/06/15 08:19:19;;;;;;;2.80;1.55;;;24.20;53.00;;;;;;5153691;27;20031;-63
2022/06/15 08:21:45;;;;;;;6.65;2.88;;;24.30;52.10;;;;;;5135237;27;20431;-63
2022/06/15 08:24:11;;;;;;;4.35;2.40;;;24.40;52.40;;;;;;5153463;27;20035;-62
2022/06/15 08:26:38;;;;;;;6.32;2.58;;;24.70;51.90;;;;;;5135515;27;20390;-62
2022/06/15 08:29:09;;;;;;;5.85;2.33;;;24.70;50.50;;;;;;5151449;27;20039;-62
2022/06/15 08:31:36;;;;;;;5.88;2.88;;;24.90;48.80;;;;;;5152192;27;20050;-63
2022/06/15 08:34:03;;;;;;;4.90;2.17;;;24.90;48.80;;;;;;5139168;27;20432;-63
2022/06/15 08:36:29;;;;;;;6.15;2.17;;;25.10;49.00;;;;;;5133565;28;20088;-63
2022/06/15 08:38:56;;;;;;;4.82;2.40;;;25.60;49.50;;;;;;5149547;27;20034;-63
2022/06/15 08:41:45;;;;;;;5.15;2.30;;;25.90;49.60;;;;;;5158226;27;20100;-63
2022/06/15 08:44:25;;;;;;;4.97;2.08;;;25.50;48.20;;;;;;5155110;27;20055;-63
2022/06/15 08:47:04;;;;;;;5.60;2.50;;;24.80;48.70;;;;;;5156627;27;20061;-63
2022/06/15 08:49:41;;;;;;;3.67;1.90;;;24.10;49.90;;;;;;5157934;27;20030;-62
2022/06/15 08:52:46;;;;;;;4.82;2.47;;;23.70;51.00;;;;;;5157403;27;20069;-62
2022/06/15 08:55:36;;;;;;;3.33;2.00;;;23.40;50.00;;;;;;5142283;27;20042;-63
2022/06/15 08:58:31;;;;;;;4.00;2.10;;;23.90;48.90;;;;;;5157388;27;20041;-63
2022/06/15 09:01:05;;;;;;;7.57;2.05;;;25.10;46.70;;;;;;5154506;27;20070;-63
2022/06/15 09:03:48;;;;;;;4.72;2.10;;;25.90;46.20;;;;;;5158188;27;20034;-63
2022/06/15 09:06:32;;;;;;;3.22;1.98;;;26.30;44.80;;;;;;5158087;27;20541;-62
2022/06/15 09:09:23;;;;;;;4.35;2.13;;;25.20;43.30;;;;;;5156502;27;20058;-63
2022/06/15 09:11:51;;;;;;;4.78;1.80;;;24.90;45.80;;;;;;5136873;27;20053;-62
2022/06/15 09:14:41;;;;;;;3.78;1.92;;;25.70;45.80;;;;;;5134981;27;20039;-63
2022/06/15 09:17:16;;;;;;;3.45;1.70;;;26.90;44.40;;;;;;5135573;27;20049;-63
2022/06/15 09:19:48;;;;;;;4.43;2.15;;;27.30;42.80;;;;;;5137371;27;20035;-63
2022/06/15 09:22:19;;;;;;;5.65;2.10;;;27.20;43.70;;;;;;5156559;27;20375;-62
2022/06/15 09:24:51;;;;;;;4.47;1.67;;;28.10;42.00;;;;;;5157310;27;20080;-62
2022/06/15 09:27:36;;;;;;;4.05;1.95;;;28.20;40.70;;;;;;5157480;27;20045;-63
2022/06/15 09:30:07;;;;;;;3.75;1.50;;;27.60;41.40;;;;;;5154315;27;20058;-63
2022/06/15 09:32:38;;;;;;;3.00;1.30;;;27.80;40.60;;;;;;5157003;27;20046;-63
2022/06/15 09:35:10;;;;;;;1.95;1.02;;;28.00;40.90;;;;;;5157461;27;20038;-63
2022/06/15 09:37:40;;;;;;;3.75;1.80;;;28.70;39.70;;;;;;5156567;27;20042;-63
2022/06/15 09:40:07;;;;;;;2.55;1.83;;;28.30;39.40;;;;;;5155470;27;20371;-62
2022/06/15 09:43:01;;;;;;;2.63;1.70;;;27.50;40.00;;;;;;5157333;27;20159;-62
2022/06/15 09:45:42;;;;;;;2.88;1.10;;;26.60;40.00;;;;;;5125804;27;20054;-62
2022/06/15 09:48:26;;;;;;;4.97;1.65;;;26.70;41.20;;;;;;5156386;27;20097;-63
2022/06/15 09:51:03;;;;;;;4.72;1.73;;;26.30;41.10;;;;;;5153375;27;20030;-62
2022/06/15 09:53:37;;;;;;;4.10;1.55;;;25.70;41.30;;;;;;5157175;27;20053;-62
2022/06/15 09:56:07;;;;;;;2.83;1.25;;;25.10;42.20;;;;;;5156295;27;20046;-63
2022/06/15 09:59:05;;;;;;;2.55;1.30;;;25.50;41.90;;;;;;5156045;27;20043;-62
2022/06/15 10:01:36;;;;;;;4.07;1.50;;;25.50;41.90;;;;;;5152732;27;20413;-62
2022/06/15 10:04:04;;;;;;;1.40;1.00;;;25.30;42.90;;;;;;5156802;27;20467;-62
2022/06/15 10:06:44;;;;;;;3.45;1.33;;;25.60;42.20;;;;;;5156842;27;20126;-62
2022/06/15 10:09:11;;;;;;;5.75;1.75;;;27.00;42.10;;;;;;5154710;27;20545;-62
2022/06/15 10:11:48;;;;;;;3.47;1.50;;;28.20;39.90;;;;;;5156495;27;20412;-63
2022/06/15 10:14:20;;;;;;;3.42;1.10;;;29.30;38.00;;;;;;5154755;27;20048;-63
2022/06/15 10:16:52;;;;;;;3.38;1.38;;;30.50;36.20;;;;;;5153231;27;20035;-63
2022/06/15 10:19:17;;;;;;;1.85;1.55;;;31.00;33.00;;;;;;5154023;27;20042;-63
2022/06/15 10:21:50;;;;;;;4.25;1.67;;;30.90;34.00;;;;;;5156497;27;20043;-62
2022/06/15 10:24:36;;;;;;;4.60;1.63;;;31.20;33.60;;;;;;5156453;27;20046;-63
2022/06/15 10:27:19;;;;;;;4.40;2.05;;;32.00;34.00;;;;;;5156335;27;20047;-63
2022/06/15 10:29:58;;;;;;;3.90;1.60;;;32.70;32.90;;;;;;5152993;27;20162;-63
2022/06/15 10:32:24;;;;;;;2.95;1.63;;;33.50;30.90;;;;;;5134170;27;20035;-63
2022/06/15 10:34:56;;;;;;;2.40;1.30;;;33.50;30.90;;;;;;5135644;27;20080;-63
2022/06/15 10:37:31;;;;;;;3.63;1.73;;;33.50;30.40;;;;;;5135630;27;20065;-63
2022/06/15 10:40:01;;;;;;;4.50;1.40;;;34.00;30.00;;;;;;5150925;27;20473;-63
2022/06/15 10:42:40;;;;;;;4.47;1.88;;;33.10;30.10;;;;;;5156065;27;20043;-62
2022/06/15 10:45:18;;;;;;;2.60;1.40;;;33.10;29.50;;;;;;5151223;27;20043;-63
2022/06/15 10:47:51;;;;;;;2.63;1.58;;;33.80;30.00;;;;;;5136322;27;20378;-63
2022/06/15 10:50:40;;;;;;;2.83;1.38;;;33.50;29.90;;;;;;5155043;27;20039;-62
2022/06/15 10:53:41;;;;;;;3.63;1.63;;;34.10;29.80;;;;;;5155866;27;20051;-63
2022/06/15 11:02:30;;;;;;;3.45;1.35;;;32.80;30.30;;;;;;5151582;27;20050;-63
2022/06/15 11:05:00;;;;;;;3.83;1.73;;;31.80;31.50;;;;;;5155537;27;20039;-63
2022/06/15 11:07:34;;;;;;;4.45;1.50;;;30.60;32.60;;;;;;5155428;27;20035;-63
2022/06/15 11:10:21;;;;;;;3.45;1.38;;;29.80;33.70;;;;;;5151408;27;20038;-63
2022/06/15 11:12:55;;;;;;;2.38;1.40;;;28.80;34.80;;;;;;5154816;27;20066;-63
2022/06/15 11:18:37;;;;;;;2.72;1.55;;;27.90;36.60;;;;;;5137530;27;20046;-62
2022/06/15 11:21:19;;;;;;;4.45;1.60;;;27.70;36.70;;;;;;5155505;27;20050;-63
2022/06/15 11:23:54;;;;;;;3.00;1.40;;;27.50;37.00;;;;;;5155433;27;20039;-62
2022/06/15 11:26:57;;;;;;;5.35;1.65;;;27.20;36.80;;;;;;5155126;27;20031;-62
2022/06/15 11:30:14;;;;;;;4.57;1.75;;;27.10;37.80;;;;;;5152515;27;20044;-63
2022/06/15 11:33:00;;;;;;;4.00;1.75;;;26.50;37.30;;;;;;5107354;27;20038;-62
2022/06/15 11:35:42;;;;;;;2.22;1.52;;;26.30;37.90;;;;;;5154667;27;20045;-62
2022/06/15 11:38:20;;;;;;;3.13;1.70;;;26.20;37.90;;;;;;5153923;27;20050;-63
2022/06/15 11:40:52;;;;;;;3.42;2.00;;;25.90;37.60;;;;;;5153433;27;20047;-63
2022/06/15 11:43:41;;;;;;;3.40;2.00;;;25.70;37.40;;;;;;5155326;27;20042;-62
2022/06/15 11:46:20;;;;;;;1.85;1.30;;;25.80;37.80;;;;;;5145829;27;20066;-62
2022/06/15 11:49:04;;;;;;;3.38;1.90;;;25.80;38.00;;;;;;5134474;27;20109;-62
2022/06/15 11:51:49;;;;;;;3.03;1.75;;;25.80;37.90;;;;;;5151848;27;20379;-62
2022/06/15 11:54:33;;;;;;;4.45;1.83;;;25.70;39.00;;;;;;5154068;27;20375;-63
2022/06/15 11:57:04;;;;;;;2.78;1.55;;;25.60;39.10;;;;;;5154593;27;20039;-62
2022/06/15 12:00:07;;;;;;;3.22;1.30;;;25.60;39.30;;;;;;5151608;27;20035;-63
2022/06/15 12:03:22;;;;;;;3.25;1.40;;;26.00;40.40;;;;;;5135694;27;20172;-63
2022/06/15 12:05:59;;;;;;;2.03;1.70;;;26.30;38.90;;;;;;5153408;27;20042;-62
2022/06/15 12:08:34;;;;;;;4.40;2.05;;;26.50;39.30;;;;;;5153879;27;20035;-62
2022/06/15 12:14:18;;;;;;;3.73;1.40;;;26.90;37.50;;;;;;5152154;27;20042;-62
2022/06/15 12:16:57;;;;;;;2.15;1.30;;;28.00;37.00;;;;;;5152017;27;20490;-63
2022/06/15 12:19:39;;;;;;;2.30;1.30;;;29.30;36.60;;;;;;5153751;27;20049;-63
2022/06/15 12:22:47;;;;;;;2.90;1.60;;;30.30;33.10;;;;;;5154357;27;20647;-63
2022/06/15 12:25:23;;;;;;;3.42;1.50;;;30.70;32.40;;;;;;5069161;28;20043;-62
2022/06/15 12:28:50;;;;;;;2.78;1.38;;;31.70;32.30;;;;;;5070098;28;20239;-63
2022/06/15 12:31:31;;;;;;;3.08;1.48;;;32.90;32.40;;;;;;5094529;28;20078;-62
2022/06/15 12:34:28;;;;;;;1.88;1.30;;;33.30;29.60;;;;;;5103510;28;20063;-62
2022/06/15 12:37:31;;;;;;;3.70;1.67;;;34.30;29.10;;;;;;5097259;27;20043;-63
2022/06/15 12:40:06;;;;;;;5.57;2.00;;;34.70;29.20;;;;;;5132651;27;20401;-63
2022/06/15 12:42:32;;;;;;;3.28;1.60;;;35.50;28.00;;;;;;5154283;27;20058;-63
2022/06/15 12:45:05;;;;;;;1.60;1.10;;;34.40;28.10;;;;;;5151291;27;20042;-62
2022/06/15 12:47:31;;;;;;;2.08;1.60;;;33.00;29.00;;;;;;5153153;27;20035;-62
2022/06/15 12:50:21;;;;;;;4.25;1.20;;;33.00;30.20;;;;;;5152959;27;20087;-62
2022/06/15 12:53:00;;;;;;;4.63;1.55;;;34.00;29.80;;;;;;5153950;27;20389;-63
2022/06/15 12:55:40;;;;;;;2.53;1.50;;;35.60;28.40;;;;;;5153274;27;20053;-63
2022/06/15 12:58:05;;;;;;;2.25;1.60;;;36.20;26.60;;;;;;5153608;27;20099;-63
2022/06/15 13:00:36;;;;;;;3.17;1.48;;;36.80;26.90;;;;;;5145858;27;20039;-63
2022/06/15 13:03:31;;;;;;;4.05;1.45;;;35.90;26.90;;;;;;5151601;27;20076;-63
2022/06/15 13:06:32;;;;;;;2.53;1.65;;;34.30;27.60;;;;;;5153759;27;20057;-62
2022/06/15 13:09:08;;;;;;;2.25;1.60;;;34.60;28.30;;;;;;5149210;27;20114;-63
2022/06/15 13:11:52;;;;;;;4.68;1.70;;;35.00;28.20;;;;;;5150824;27;20043;-64
2022/06/15 13:14:22;;;;;;;4.20;1.52;;;35.70;27.00;;;;;;5147143;27;20039;-63
2022/06/15 13:17:06;;;;;;;1.40;1.27;;;36.40;27.00;;;;;;5146781;27;20062;-64
2022/06/15 13:19:42;;;;;;;3.38;1.50;;;37.00;27.30;;;;;;5143295;27;20114;-63
2022/06/15 13:22:23;;;;;;;3.70;1.75;;;37.10;26.60;;;;;;5148884;27;20036;-63
2022/06/15 13:25:17;;;;;;;5.18;1.83;;;36.50;26.10;;;;;;5145901;27;20092;-64
2022/06/15 13:27:57;;;;;;;4.25;1.80;;;34.40;27.00;;;;;;5157776;27;20047;-63
2022/06/15 13:30:30;;;;;;;2.65;1.25;;;32.80;27.80;;;;;;5151067;27;20938;-64